createdAt,value
2023-06-04T00:00:01.614Z,68.64
2023-06-04T00:02:29.385Z,69.84
2023-06-04T00:04:57.147Z,69.61
2023-06-04T00:07:26.188Z,69.29
2023-06-04T00:09:54.431Z,69.76
2023-06-04T00:12:22.250Z,69.53
2023-06-04T00:14:49.996Z,67.90
2023-06-04T00:17:17.728Z,70.02
2023-06-04T00:19:45.531Z,69.18
2023-06-04T00:22:13.263Z,69.98
2023-06-04T00:24:42.326Z,68.92
2023-06-04T00:27:10.894Z,70.32
2023-06-04T00:29:38.718Z,69.53
2023-06-04T00:32:07.224Z,68.50
2023-06-04T00:34:35.021Z,69.09
2023-06-04T00:37:03.461Z,68.20
2023-06-04T00:39:31.294Z,69.39
2023-06-04T00:42:00.357Z,71.14
2023-06-04T00:44:28.197Z,69.11
2023-06-04T00:46:56.770Z,68.35
2023-06-04T00:49:24.524Z,68.63
2023-06-04T00:51:53.271Z,72.12
2023-06-04T00:54:21.843Z,71.39
2023-06-04T00:56:50.076Z,71.36
2023-06-04T00:59:19.312Z,74.50
2023-06-04T01:01:51.863Z,73.07
2023-06-04T01:04:25.959Z,71.53
2023-06-04T01:06:58.304Z,70.96
2023-06-04T01:09:28.173Z,70.42
2023-06-04T01:11:58.499Z,72.50
2023-06-04T01:14:27.617Z,72.39
2023-06-04T01:17:03.973Z,73.48
2023-06-04T01:20:04.127Z,74.38
2023-06-04T01:22:40.619Z,73.61
2023-06-04T01:25:24.762Z,73.96
2023-06-04T01:27:57.200Z,72.35
2023-06-04T01:30:29.056Z,72.84
2023-06-04T01:32:57.439Z,71.43
2023-06-04T01:35:28.222Z,70.80
2023-06-04T01:37:57.602Z,70.78
2023-06-04T01:40:26.717Z,71.73
2023-06-04T01:42:54.455Z,74.21
2023-06-04T01:45:22.810Z,77.39
2023-06-04T01:47:52.138Z,76.60
2023-06-04T01:50:19.947Z,76.62
2023-06-04T01:52:47.710Z,76.59
2023-06-04T01:55:16.750Z,77.97
2023-06-04T01:57:45.949Z,77.35
2023-06-04T02:00:15.436Z,78.24
2023-06-04T02:02:44.813Z,77.63
2023-06-04T02:05:14.219Z,74.61
2023-06-04T02:07:45.794Z,74.32
2023-06-04T02:10:14.801Z,72.38
2023-06-04T02:12:55.418Z,76.00
2023-06-04T02:15:24.403Z,74.00
2023-06-04T02:17:52.504Z,72.42
2023-06-04T02:20:21.573Z,73.37
2023-06-04T02:22:49.312Z,73.12
2023-06-04T02:25:17.450Z,75.34
2023-06-04T02:27:45.238Z,75.49
2023-06-04T02:30:13.084Z,77.78
2023-06-04T02:32:41.855Z,75.41
2023-06-04T02:35:10.280Z,74.03
2023-06-04T02:37:40.124Z,74.33
2023-06-04T02:40:09.253Z,75.41
2023-06-04T02:42:37.025Z,77.14
2023-06-04T02:45:05.343Z,74.70
2023-06-04T02:47:33.037Z,72.98
2023-06-04T02:50:00.713Z,73.65
2023-06-04T02:52:28.656Z,73.73
2023-06-04T02:54:58.194Z,75.65
2023-06-04T02:57:25.884Z,76.14
2023-06-04T02:59:56.418Z,75.70
2023-06-04T03:02:24.169Z,78.67
2023-06-04T03:04:52.542Z,77.61
2023-06-04T03:07:21.639Z,76.33
2023-06-04T03:09:49.293Z,79.40
2023-06-04T03:12:18.464Z,78.96
2023-06-04T03:14:46.262Z,81.80
2023-06-04T03:17:14.067Z,79.80
2023-06-04T03:19:43.687Z,78.24
2023-06-04T03:22:11.962Z,75.36
2023-06-04T03:24:41.847Z,75.06
2023-06-04T03:27:10.964Z,74.91
2023-06-04T03:29:39.965Z,76.16
2023-06-04T03:32:09.051Z,77.97
2023-06-04T03:34:36.697Z,78.85
2023-06-04T03:37:04.654Z,79.44
2023-06-04T03:39:32.424Z,80.04
2023-06-04T03:42:00.161Z,77.07
2023-06-04T03:44:27.850Z,75.97
2023-06-04T03:46:56.961Z,74.53
2023-06-04T03:49:24.710Z,75.94
2023-06-04T03:51:52.398Z,77.99
2023-06-04T03:54:20.166Z,79.03
2023-06-04T03:56:48.640Z,76.07
2023-06-04T03:59:16.407Z,74.60
2023-06-04T04:01:44.536Z,74.35
2023-06-04T04:04:13.640Z,75.37
2023-06-04T04:06:42.400Z,73.72
2023-06-04T04:09:10.066Z,73.44
2023-06-04T04:11:37.705Z,74.46
2023-06-04T04:14:05.660Z,73.78
2023-06-04T04:16:33.349Z,70.35
2023-06-04T04:19:01.075Z,68.25
2023-06-04T04:21:30.085Z,68.74
2023-06-04T04:23:57.905Z,64.67
2023-06-04T04:26:28.712Z,62.93
2023-06-04T04:28:59.130Z,62.61
2023-06-04T04:31:26.968Z,58.99
2023-06-04T04:33:57.960Z,53.75
2023-06-04T04:36:26.176Z,55.55
2023-06-04T04:38:56.303Z,53.80
2023-06-04T04:41:24.236Z,50.56
2023-06-04T04:43:54.947Z,52.72
2023-06-04T04:46:22.754Z,53.03
2023-06-04T04:48:50.448Z,58.05
2023-06-04T04:51:18.159Z,57.35
2023-06-04T04:53:45.891Z,54.02
2023-06-04T04:56:15.145Z,49.65
2023-06-04T04:58:43.097Z,46.15
2023-06-04T05:01:10.872Z,44.53
2023-06-04T05:03:38.764Z,43.83
2023-06-04T05:06:06.570Z,42.91
2023-06-04T05:08:34.242Z,42.84
2023-06-04T05:11:01.911Z,41.35
2023-06-04T05:13:31.109Z,41.75
2023-06-04T05:15:59.127Z,42.71
2023-06-04T05:18:29.832Z,46.65
2023-06-04T05:20:58.923Z,42.98
2023-06-04T05:23:26.684Z,46.12
2023-06-04T05:25:54.494Z,44.36
2023-06-04T05:28:25.802Z,43.96
2023-06-04T05:31:00.007Z,41.13
2023-06-04T05:33:27.878Z,43.40
2023-06-04T05:35:58.648Z,40.77
2023-06-04T05:38:27.557Z,41.72
2023-06-04T05:40:56.411Z,40.02
2023-06-04T05:43:24.462Z,40.12
2023-06-04T05:45:52.706Z,39.69
2023-06-04T05:48:21.923Z,38.58
2023-06-04T05:50:49.698Z,40.15
2023-06-04T05:53:17.408Z,40.09
2023-06-04T05:55:45.171Z,40.09
2023-06-04T05:58:12.886Z,38.35
2023-06-04T06:00:41.160Z,39.29
2023-06-04T06:03:09.030Z,37.93
2023-06-04T06:05:38.201Z,38.11
2023-06-04T06:08:07.230Z,38.30
2023-06-04T06:10:34.915Z,36.04
2023-06-04T06:13:02.605Z,40.48
2023-06-04T06:15:31.295Z,41.65
2023-06-04T06:17:59.065Z,38.34
2023-06-04T06:20:27.018Z,38.16
2023-06-04T06:22:56.068Z,37.61
2023-06-04T06:25:23.723Z,36.50
2023-06-04T06:27:52.464Z,37.29
2023-06-04T06:30:20.202Z,38.29
2023-06-04T06:32:49.543Z,37.28
2023-06-04T06:35:17.497Z,37.68
2023-06-04T06:37:45.473Z,38.31
2023-06-04T06:40:14.647Z,38.16
2023-06-04T06:42:42.437Z,38.24
2023-06-04T06:45:10.950Z,37.43
2023-06-04T06:47:38.764Z,37.57
2023-06-04T06:50:07.830Z,37.34
2023-06-04T06:52:35.535Z,39.05
2023-06-04T06:55:03.176Z,35.79
2023-06-04T06:57:32.428Z,35.38
2023-06-04T07:00:00.107Z,37.79
2023-06-04T07:02:27.827Z,34.78
2023-06-04T07:04:55.545Z,34.67
2023-06-04T07:07:23.222Z,35.28
2023-06-04T07:09:51.277Z,39.70
2023-06-04T07:12:18.990Z,35.41
2023-06-04T07:14:48.026Z,34.78
2023-06-04T07:17:15.802Z,35.05
2023-06-04T07:19:43.488Z,34.01
2023-06-04T07:22:11.553Z,34.59
2023-06-04T07:24:39.251Z,34.58
2023-06-04T07:27:12.833Z,33.45
2023-06-04T07:29:40.626Z,35.01
2023-06-04T07:32:09.706Z,33.36
2023-06-04T07:34:38.153Z,34.83
2023-06-04T07:37:06.347Z,33.18
2023-06-04T07:39:34.101Z,35.96
2023-06-04T07:42:01.764Z,34.32
2023-06-04T07:44:29.426Z,36.87
2023-06-04T07:46:57.098Z,37.43
2023-06-04T07:49:26.145Z,37.48
2023-06-04T07:51:53.824Z,37.81
2023-06-04T07:54:21.788Z,36.46
2023-06-04T07:56:49.480Z,33.60
2023-06-04T07:59:17.208Z,35.03
2023-06-04T08:01:44.865Z,34.36
2023-06-04T08:04:12.821Z,34.50
2023-06-04T08:06:43.162Z,32.37
2023-06-04T08:09:11.339Z,32.65
2023-06-04T08:11:39.391Z,31.59
2023-06-04T08:14:07.143Z,32.09
2023-06-04T08:16:34.876Z,33.67
2023-06-04T08:19:02.641Z,32.72
2023-06-04T08:21:30.949Z,34.23
2023-06-04T08:24:00.334Z,33.91
2023-06-04T08:26:28.508Z,32.69
2023-06-04T08:28:57.274Z,34.58
2023-06-04T08:31:25.010Z,32.89
2023-06-04T08:33:52.692Z,34.92
2023-06-04T08:36:20.383Z,35.54
2023-06-04T08:38:52.694Z,35.90
2023-06-04T08:41:30.173Z,34.67
2023-06-04T08:44:01.036Z,34.42
2023-06-04T08:46:29.943Z,35.02
2023-06-04T08:49:01.690Z,37.09
2023-06-04T08:51:30.535Z,38.48
2023-06-04T08:54:00.188Z,37.88
2023-06-04T08:56:33.383Z,38.65
2023-06-04T08:59:03.366Z,40.21
2023-06-04T09:01:32.200Z,43.32
2023-06-04T09:04:03.993Z,41.51
2023-06-04T09:06:32.273Z,39.96
2023-06-04T09:09:00.601Z,38.69
2023-06-04T09:11:36.112Z,41.24
2023-06-04T09:14:07.039Z,40.34
2023-06-04T09:16:38.913Z,39.24
2023-06-04T09:19:06.801Z,40.92
2023-06-04T09:21:34.432Z,40.57
2023-06-04T09:24:02.124Z,38.71
2023-06-04T09:26:31.183Z,40.41
2023-06-04T09:29:00.707Z,40.21
2023-06-04T09:31:30.129Z,41.19
2023-06-04T09:33:57.885Z,40.27
2023-06-04T09:36:32.392Z,43.37
2023-06-04T09:39:00.231Z,42.11
2023-06-04T09:41:28.418Z,41.07
2023-06-04T09:44:04.712Z,38.87
2023-06-04T09:46:32.950Z,40.94
2023-06-04T09:49:05.191Z,39.04
2023-06-04T09:51:33.640Z,37.61
2023-06-04T09:54:03.362Z,38.77
2023-06-04T09:56:32.021Z,41.21
2023-06-04T09:59:02.817Z,41.74
2023-06-04T10:01:31.945Z,40.75
2023-06-04T10:04:04.556Z,39.13
2023-06-04T10:06:36.624Z,39.23
2023-06-04T10:09:07.481Z,37.14
2023-06-04T10:11:37.724Z,38.49
2023-06-04T10:14:13.309Z,38.28
2023-06-04T10:16:42.596Z,37.73
2023-06-04T10:19:10.653Z,38.13
2023-06-04T10:21:38.641Z,38.75
2023-06-04T10:24:07.106Z,38.87
2023-06-04T10:26:36.244Z,37.41
2023-06-04T10:29:06.566Z,37.99
2023-06-04T10:31:34.764Z,37.87
2023-06-04T10:34:02.657Z,37.40
2023-06-04T10:36:30.319Z,37.39
2023-06-04T10:38:59.411Z,36.09
2023-06-04T10:41:27.591Z,37.54
2023-06-04T10:44:03.882Z,38.41
2023-06-04T10:46:41.986Z,36.55
2023-06-04T10:49:12.511Z,36.50
2023-06-04T10:51:40.193Z,36.08
2023-06-04T10:54:07.907Z,37.50
2023-06-04T10:56:37.709Z,35.48
2023-06-04T10:59:16.193Z,34.80
2023-06-04T11:01:45.465Z,35.68
2023-06-04T11:04:23.798Z,36.86
2023-06-04T11:07:04.494Z,37.17
2023-06-04T11:09:34.372Z,35.92
2023-06-04T11:12:02.816Z,35.75
2023-06-04T11:14:30.805Z,39.05
2023-06-04T11:16:59.894Z,38.75
2023-06-04T11:19:37.794Z,37.72
2023-06-04T11:22:06.224Z,37.82
2023-06-04T11:24:34.939Z,36.56
2023-06-04T11:27:12.860Z,34.05
2023-06-04T11:29:45.619Z,37.43
2023-06-04T11:32:23.477Z,37.65
2023-06-04T11:34:51.383Z,36.53
2023-06-04T11:37:19.121Z,37.75
2023-06-04T11:39:46.777Z,37.84
2023-06-04T11:42:14.970Z,38.01
2023-06-04T11:44:46.254Z,38.30
2023-06-04T11:47:15.543Z,38.19
2023-06-04T11:49:44.157Z,39.07
2023-06-04T11:52:13.578Z,38.14
2023-06-04T11:54:41.948Z,37.63
2023-06-04T11:57:09.829Z,39.09
2023-06-04T11:59:37.709Z,37.66
2023-06-04T12:02:05.873Z,36.64
2023-06-04T12:04:35.207Z,36.55
2023-06-04T12:07:05.834Z,36.90
2023-06-04T12:09:35.941Z,36.56
2023-06-04T12:12:05.019Z,37.77
2023-06-04T12:14:33.140Z,36.56
2023-06-04T12:17:02.026Z,34.91
2023-06-04T12:19:30.294Z,35.84
2023-06-04T12:22:03.992Z,36.28
2023-06-04T12:24:32.313Z,36.27
2023-06-04T12:27:05.002Z,34.83
2023-06-04T12:29:32.750Z,35.84
2023-06-04T12:32:06.136Z,35.70
2023-06-04T12:34:33.981Z,35.78
2023-06-04T12:37:04.186Z,35.44
2023-06-04T12:39:32.105Z,36.12
2023-06-04T12:41:59.892Z,34.89
2023-06-04T12:44:27.639Z,34.49
2023-06-04T12:46:55.429Z,35.25
2023-06-04T12:49:23.143Z,35.22
2023-06-04T12:51:50.889Z,36.12
2023-06-04T12:54:20.099Z,35.63
2023-06-04T12:56:47.854Z,34.08
2023-06-04T12:59:15.557Z,34.97
2023-06-04T13:01:43.376Z,36.78
2023-06-04T13:04:11.385Z,36.44
2023-06-04T13:06:39.363Z,35.77
2023-06-04T13:09:10.096Z,36.98
2023-06-04T13:11:41.629Z,36.66
2023-06-04T13:14:10.032Z,35.71
2023-06-04T13:16:38.336Z,35.00
2023-06-04T13:19:06.300Z,36.63
2023-06-04T13:21:33.951Z,36.78
2023-06-04T13:24:01.766Z,37.32
2023-06-04T13:26:29.503Z,38.13
2023-06-04T13:28:58.555Z,36.97
2023-06-04T13:31:26.641Z,37.28
2023-06-04T13:33:54.337Z,36.94
2023-06-04T13:36:22.337Z,35.92
2023-06-04T13:38:49.987Z,36.17
2023-06-04T13:41:17.642Z,37.43
2023-06-04T13:43:45.471Z,37.44
2023-06-04T13:46:14.645Z,38.47
2023-06-04T13:48:42.345Z,37.64
2023-06-04T13:51:10.253Z,36.29
2023-06-04T13:53:38.164Z,36.60
2023-06-04T13:56:06.001Z,36.83
2023-06-04T13:58:33.633Z,38.56
2023-06-04T14:01:01.357Z,37.26
2023-06-04T14:03:30.537Z,37.19
2023-06-04T14:05:58.295Z,36.72
2023-06-04T14:08:25.971Z,37.08
2023-06-04T14:10:56.031Z,37.39
2023-06-04T14:13:23.753Z,36.73
2023-06-04T14:15:52.026Z,37.98
2023-06-04T14:18:19.806Z,38.94
2023-06-04T14:20:48.925Z,38.79
2023-06-04T14:23:17.679Z,37.74
2023-06-04T14:25:45.452Z,38.65
2023-06-04T14:28:13.195Z,38.41
2023-06-04T14:30:40.908Z,37.65
2023-06-04T14:33:08.707Z,37.92
2023-06-04T14:35:36.417Z,38.72
2023-06-04T14:38:05.786Z,39.94
2023-06-04T14:40:36.594Z,39.71
2023-06-04T14:43:04.323Z,39.50
2023-06-04T14:45:31.983Z,39.33
2023-06-04T14:48:13.375Z,39.27
2023-06-04T14:50:42.377Z,37.07
2023-06-04T14:53:11.438Z,38.47
2023-06-04T14:55:39.133Z,39.22
2023-06-04T14:58:07.151Z,40.31
2023-06-04T15:00:34.853Z,40.13
2023-06-04T15:03:04.385Z,40.53
2023-06-04T15:05:33.745Z,40.34
2023-06-04T15:08:01.767Z,41.57
2023-06-04T15:10:30.849Z,41.22
2023-06-04T15:12:58.875Z,41.85
2023-06-04T15:15:28.062Z,42.10
2023-06-04T15:17:55.884Z,41.64
2023-06-04T15:20:26.037Z,43.05
2023-06-04T15:22:53.755Z,44.96
2023-06-04T15:25:21.614Z,43.49
2023-06-04T15:27:50.788Z,42.90
2023-06-04T15:30:18.951Z,43.05
2023-06-04T15:32:46.766Z,42.94
2023-06-04T15:35:14.561Z,41.91
2023-06-04T15:37:42.235Z,42.99
2023-06-04T15:40:11.864Z,43.54
2023-06-04T15:42:39.557Z,43.45
2023-06-04T15:45:10.240Z,43.74
2023-06-04T15:47:38.486Z,43.48
2023-06-04T15:50:07.635Z,43.88
2023-06-04T15:52:35.334Z,42.63
2023-06-04T15:55:03.023Z,42.16
2023-06-04T15:57:30.683Z,42.67
2023-06-04T15:59:58.371Z,41.17
2023-06-04T16:02:27.537Z,41.01
2023-06-04T16:04:55.292Z,43.00
2023-06-04T16:07:23.018Z,42.78
2023-06-04T16:09:50.693Z,43.10
2023-06-04T16:12:18.340Z,43.37
2023-06-04T16:14:46.283Z,42.93
2023-06-04T16:17:13.990Z,43.53
2023-06-04T16:19:43.016Z,44.14
2023-06-04T16:22:10.706Z,44.75
2023-06-04T16:24:38.380Z,43.65
2023-06-04T16:27:06.428Z,42.88
2023-06-04T16:29:34.144Z,43.14
2023-06-04T16:32:01.851Z,43.98
2023-06-04T16:34:29.494Z,44.21
2023-06-04T16:36:58.864Z,46.63
2023-06-04T16:39:26.753Z,45.28
2023-06-04T16:41:54.752Z,45.85
2023-06-04T16:44:22.441Z,46.10
2023-06-04T16:46:50.147Z,46.50
2023-06-04T16:49:17.916Z,46.84
2023-06-04T16:51:45.615Z,46.59
2023-06-04T16:54:14.644Z,46.09
2023-06-04T16:56:42.316Z,45.51
2023-06-04T16:59:10.231Z,45.63
2023-06-04T17:01:40.180Z,45.36
2023-06-04T17:04:07.861Z,45.93
2023-06-04T17:06:36.945Z,44.68
2023-06-04T17:09:04.793Z,45.57
2023-06-04T17:11:34.193Z,46.00
2023-06-04T17:14:02.966Z,46.05
2023-06-04T17:16:30.670Z,45.92
2023-06-04T17:18:58.369Z,45.88
2023-06-04T17:21:26.060Z,45.78
2023-06-04T17:23:53.800Z,45.14
2023-06-04T17:26:22.960Z,46.09
2023-06-04T17:28:52.051Z,46.63
2023-06-04T17:31:19.815Z,46.43
2023-06-04T17:33:47.559Z,46.16
2023-06-04T17:36:15.261Z,46.37
2023-06-04T17:38:42.966Z,47.04
2023-06-04T17:41:10.940Z,47.14
2023-06-04T17:43:40.172Z,46.29
2023-06-04T17:46:09.486Z,46.39
2023-06-04T17:48:37.460Z,46.88
2023-06-04T17:51:06.291Z,47.61
2023-06-04T17:53:34.222Z,47.37
2023-06-04T17:56:01.897Z,49.13
2023-06-04T17:58:30.254Z,48.48
2023-06-04T18:00:58.264Z,47.57
2023-06-04T18:03:27.425Z,48.83
2023-06-04T18:05:55.172Z,49.38
2023-06-04T18:08:23.199Z,48.94
2023-06-04T18:10:50.921Z,50.53
2023-06-04T18:13:18.685Z,50.41
2023-06-04T18:15:46.451Z,50.56
2023-06-04T18:18:14.264Z,49.51
2023-06-04T18:20:43.347Z,49.91
2023-06-04T18:23:13.194Z,50.43
2023-06-04T18:25:41.130Z,51.40
2023-06-04T18:28:08.887Z,53.08
2023-06-04T18:30:36.523Z,52.49
2023-06-04T18:33:04.364Z,52.03
2023-06-04T18:35:33.153Z,51.96
2023-06-04T18:38:04.656Z,51.90
2023-06-04T18:40:32.479Z,52.07
2023-06-04T18:43:00.199Z,52.29
2023-06-04T18:45:27.927Z,52.44
2023-06-04T18:47:55.926Z,53.32
2023-06-04T18:50:23.823Z,53.24
2023-06-04T18:52:51.634Z,53.46
2023-06-04T18:55:20.782Z,52.09
2023-06-04T18:57:48.763Z,53.28
2023-06-04T19:00:17.249Z,53.91
2023-06-04T19:02:45.747Z,53.40
2023-06-04T19:05:13.437Z,53.01
2023-06-04T19:07:41.626Z,53.13
2023-06-04T19:10:09.883Z,54.28
2023-06-04T19:12:40.641Z,53.66
2023-06-04T19:15:09.621Z,53.18
2023-06-04T19:17:37.370Z,54.31
2023-06-04T19:20:05.668Z,55.20
2023-06-04T19:22:33.398Z,54.10
2023-06-04T19:25:01.081Z,53.62
2023-06-04T19:27:28.944Z,54.78
2023-06-04T19:29:57.980Z,54.28
2023-06-04T19:32:29.066Z,54.83
2023-06-04T19:34:57.213Z,55.01
2023-06-04T19:37:24.936Z,55.68
2023-06-04T19:39:52.573Z,57.21
2023-06-04T19:42:21.594Z,56.11
2023-06-04T19:44:49.267Z,56.51
2023-06-04T19:47:18.258Z,56.00
2023-06-04T19:49:46.894Z,57.45
2023-06-04T19:52:14.613Z,57.42
2023-06-04T19:54:42.375Z,58.07
2023-06-04T19:57:11.253Z,57.82
2023-06-04T19:59:40.392Z,57.97
2023-06-04T20:02:08.740Z,57.93
2023-06-04T20:04:37.881Z,58.10
2023-06-04T20:07:05.844Z,58.38
2023-06-04T20:09:34.972Z,58.46
2023-06-04T20:12:03.672Z,58.31
2023-06-04T20:14:32.946Z,59.56
2023-06-04T20:17:00.895Z,59.56
2023-06-04T20:19:28.578Z,61.39
2023-06-04T20:21:57.585Z,61.29
2023-06-04T20:24:25.590Z,61.31
2023-06-04T20:26:53.615Z,61.27
2023-06-04T20:29:21.302Z,61.18
2023-06-04T20:31:48.974Z,60.83
2023-06-04T20:34:16.687Z,61.32
2023-06-04T20:36:44.747Z,61.48
2023-06-04T20:39:13.776Z,62.33
2023-06-04T20:41:41.920Z,63.13
2023-06-04T20:44:09.631Z,62.21
2023-06-04T20:46:37.370Z,63.95
2023-06-04T20:49:05.153Z,63.95
2023-06-04T20:51:33.684Z,63.36
2023-06-04T20:54:01.651Z,63.97
2023-06-04T20:56:30.738Z,63.82
2023-06-04T20:58:58.513Z,63.70
2023-06-04T21:01:26.504Z,63.24
2023-06-04T21:03:54.256Z,62.87
2023-06-04T21:06:22.104Z,63.09
2023-06-04T21:08:49.927Z,62.76
2023-06-04T21:11:17.705Z,67.46
2023-06-04T21:13:46.803Z,68.29
2023-06-04T21:18:42.342Z,72.25
2023-06-04T21:21:10.271Z,73.87
2023-06-04T21:23:38.301Z,72.40
2023-06-04T21:26:06.193Z,68.81
2023-06-04T21:28:33.920Z,67.18
2023-06-04T21:31:02.985Z,64.78
2023-06-04T21:33:30.677Z,71.40
2023-06-04T21:35:58.351Z,71.88
2023-06-04T21:38:27.400Z,69.26
2023-06-04T21:40:55.106Z,67.65
2023-06-04T21:43:23.177Z,66.90
2023-06-04T21:45:51.594Z,66.41
2023-06-04T21:48:20.657Z,68.64
2023-06-04T21:50:50.745Z,73.38
2023-06-04T21:53:18.396Z,72.27
2023-06-04T21:55:46.035Z,73.08
2023-06-04T21:58:13.739Z,73.12
2023-06-04T22:00:41.883Z,70.00
2023-06-04T22:03:09.669Z,68.77
2023-06-04T22:05:39.062Z,70.07
2023-06-04T22:08:06.814Z,71.62
2023-06-04T22:10:34.487Z,68.19
2023-06-04T22:13:02.193Z,71.18
2023-06-04T22:15:29.871Z,69.46
2023-06-04T22:18:00.508Z,69.18
2023-06-04T22:20:31.471Z,73.06
2023-06-04T22:23:00.480Z,75.05
2023-06-04T22:25:28.193Z,76.46
2023-06-04T22:27:55.867Z,75.36
2023-06-04T22:30:23.506Z,77.38
2023-06-04T22:32:51.337Z,78.02
2023-06-04T22:35:19.662Z,80.02
2023-06-04T22:37:47.603Z,79.23
2023-06-04T22:40:16.947Z,79.44
2023-06-04T22:42:44.713Z,79.51
2023-06-04T22:45:12.487Z,79.49
2023-06-04T22:47:40.404Z,81.83
2023-06-04T22:50:09.162Z,77.25
2023-06-04T22:52:41.044Z,76.80
2023-06-04T22:55:10.069Z,74.55
2023-06-04T22:57:39.926Z,77.76
2023-06-04T23:00:09.852Z,75.33
2023-06-04T23:02:37.663Z,79.49
2023-06-04T23:05:06.124Z,81.71
2023-06-04T23:07:33.996Z,79.20
2023-06-04T23:10:02.362Z,78.48
2023-06-04T23:12:30.052Z,76.47
2023-06-04T23:14:59.214Z,80.35
2023-06-04T23:17:27.000Z,80.18
2023-06-04T23:19:56.284Z,75.44
2023-06-04T23:22:24.336Z,80.42
2023-06-04T23:24:52.018Z,78.73
2023-06-04T23:27:19.905Z,81.22
2023-06-04T23:29:47.606Z,78.04
2023-06-04T23:32:16.935Z,77.26
2023-06-04T23:34:44.784Z,74.75
2023-06-04T23:37:12.612Z,78.54
2023-06-04T23:39:40.367Z,79.90
2023-06-04T23:42:08.197Z,80.47
2023-06-04T23:44:35.907Z,78.17
2023-06-04T23:47:03.564Z,79.38
2023-06-04T23:49:32.692Z,79.05
2023-06-04T23:52:00.413Z,76.31
2023-06-04T23:54:28.116Z,80.54
2023-06-04T23:56:55.832Z,81.93
2023-06-04T23:59:23.553Z,81.36
